createdAt,value
2023-04-26T00:02:03.880Z,100.00
2023-04-26T00:05:08.918Z,100.00
2023-04-26T00:08:12.125Z,100.00
2023-04-26T00:11:14.504Z,100.00
2023-04-26T00:14:16.242Z,100.00
2023-04-26T00:17:18.289Z,100.00
2023-04-26T00:20:22.694Z,100.00
2023-04-26T00:23:26.855Z,100.00
2023-04-26T00:26:28.600Z,100.00
2023-04-26T00:29:31.432Z,100.00
2023-04-26T00:32:35.787Z,100.00
2023-04-26T00:35:39.201Z,100.00
2023-04-26T00:38:42.432Z,100.00
2023-04-26T00:41:45.344Z,100.00
2023-04-26T00:44:47.128Z,100.00
2023-04-26T00:47:49.050Z,100.00
2023-04-26T00:50:55.562Z,100.00
2023-04-26T00:53:57.708Z,100.00
2023-04-26T00:56:59.563Z,100.00
2023-04-26T01:00:01.639Z,100.00
2023-04-26T01:03:05.489Z,100.00
2023-04-26T01:06:09.397Z,100.00
2023-04-26T01:09:11.262Z,100.00
2023-04-26T01:12:14.545Z,100.00
2023-04-26T01:15:19.999Z,100.00
2023-04-26T01:18:22.280Z,100.00
2023-04-26T01:21:26.318Z,100.00
2023-04-26T01:24:29.768Z,100.00
2023-04-26T01:27:31.760Z,100.00
2023-04-26T01:30:34.946Z,100.00
2023-04-26T01:33:37.725Z,100.00
2023-04-26T01:36:40.799Z,100.00
2023-04-26T01:39:44.596Z,100.00
2023-04-26T01:42:46.784Z,100.00
2023-04-26T01:45:49.454Z,100.00
2023-04-26T01:48:51.555Z,100.00
2023-04-26T01:51:53.728Z,100.00
2023-04-26T01:54:57.064Z,100.00
2023-04-26T01:57:58.845Z,100.00
2023-04-26T02:01:06.375Z,100.00
2023-04-26T02:04:08.510Z,100.00
2023-04-26T02:07:11.588Z,100.00
2023-04-26T02:10:17.605Z,100.00
2023-04-26T02:13:20.628Z,100.00
2023-04-26T02:16:22.649Z,100.00
2023-04-26T02:19:24.479Z,100.00
2023-04-26T02:22:26.379Z,100.00
2023-04-26T02:25:35.641Z,100.00
2023-04-26T02:28:37.750Z,100.00
2023-04-26T02:31:40.547Z,100.00
2023-04-26T02:34:43.243Z,100.00
2023-04-26T02:37:45.029Z,100.00
2023-04-26T02:40:48.226Z,100.00
2023-04-26T02:43:50.335Z,100.00
2023-04-26T02:46:52.378Z,100.00
2023-04-26T02:49:54.722Z,100.00
2023-04-26T02:52:56.489Z,100.00
2023-04-26T02:56:00.147Z,100.00
2023-04-26T02:59:03.131Z,100.00
2023-04-26T03:02:05.258Z,100.00
2023-04-26T03:05:08.849Z,100.00
2023-04-26T03:08:10.977Z,100.00
2023-04-26T03:11:14.790Z,100.00
2023-04-26T03:14:17.997Z,100.00
2023-04-26T03:17:20.181Z,100.00
2023-04-26T03:20:21.979Z,100.00
2023-04-26T03:23:25.009Z,100.00
2023-04-26T03:26:28.203Z,100.00
2023-04-26T03:29:33.127Z,100.00
2023-04-26T03:32:37.903Z,100.00
2023-04-26T03:35:39.740Z,100.00
2023-04-26T03:38:43.611Z,100.00
2023-04-26T03:41:49.551Z,100.00
2023-04-26T03:44:51.513Z,100.00
2023-04-26T03:47:53.359Z,100.00
2023-04-26T03:50:55.327Z,100.00
2023-04-26T03:53:58.234Z,100.00
2023-04-26T03:57:01.817Z,100.00
2023-04-26T04:00:04.608Z,100.00
2023-04-26T04:03:08.719Z,100.00
2023-04-26T04:06:11.903Z,100.00
2023-04-26T04:09:13.894Z,100.00
2023-04-26T04:12:17.650Z,100.00
2023-04-26T04:15:20.366Z,100.00
2023-04-26T04:18:22.774Z,100.00
2023-04-26T04:21:24.675Z,100.00
2023-04-26T04:24:27.545Z,100.00
2023-04-26T04:27:38.690Z,100.00
2023-04-26T04:30:45.937Z,100.00
2023-04-26T04:33:48.708Z,100.00
2023-04-26T04:36:52.115Z,100.00
2023-04-26T04:39:54.191Z,100.00
2023-04-26T04:42:59.133Z,100.00
2023-04-26T04:46:01.252Z,100.00
2023-04-26T04:49:03.063Z,100.00
2023-04-26T04:52:05.907Z,100.00
2023-04-26T04:55:10.321Z,100.00
2023-04-26T04:58:17.203Z,100.00
2023-04-26T05:01:19.222Z,100.00
2023-04-26T05:04:21.728Z,100.00
2023-04-26T05:07:24.633Z,100.00
2023-04-26T05:10:29.352Z,100.00
2023-04-26T05:13:33.664Z,100.00
2023-04-26T05:16:35.479Z,100.00
2023-04-26T05:19:37.760Z,100.00
2023-04-26T05:22:39.736Z,100.00
2023-04-26T05:25:42.114Z,100.00
2023-04-26T05:28:45.364Z,100.00
2023-04-26T05:31:47.482Z,100.00
2023-04-26T05:34:49.331Z,100.00
2023-04-26T05:37:51.103Z,100.00
2023-04-26T05:40:53.171Z,100.00
2023-04-26T05:43:57.275Z,100.00
2023-04-26T05:46:59.620Z,100.00
2023-04-26T05:50:01.758Z,100.00
2023-04-26T05:53:04.643Z,100.00
2023-04-26T05:56:06.737Z,100.00
2023-04-26T05:59:09.835Z,100.00
2023-04-26T06:02:16.000Z,100.00
2023-04-26T06:05:18.490Z,100.00
2023-04-26T06:08:23.126Z,100.00
2023-04-26T06:11:25.241Z,100.00
2023-04-26T06:14:30.688Z,100.00
2023-04-26T06:17:32.837Z,100.00
2023-04-26T06:20:37.494Z,100.00
2023-04-26T06:23:39.486Z,100.00
2023-04-26T06:26:41.365Z,100.00
2023-04-26T06:29:44.788Z,100.00
2023-04-26T06:32:47.793Z,100.00
2023-04-26T06:35:50.580Z,100.00
2023-04-26T06:38:53.510Z,100.00
2023-04-26T06:41:55.262Z,100.00
2023-04-26T06:45:00.926Z,100.00
2023-04-26T06:48:02.992Z,100.00
2023-04-26T06:51:08.186Z,100.00
2023-04-26T06:54:10.429Z,100.00
2023-04-26T06:57:13.412Z,100.00
2023-04-26T07:00:17.129Z,100.00
2023-04-26T07:03:19.833Z,100.00
2023-04-26T07:06:22.591Z,100.00
2023-04-26T07:09:25.944Z,100.00
2023-04-26T07:12:28.155Z,100.00
2023-04-26T07:15:31.414Z,100.00
2023-04-26T07:18:33.170Z,100.00
2023-04-26T07:21:37.549Z,100.00
2023-04-26T07:24:40.118Z,100.00
2023-04-26T07:27:43.454Z,100.00
2023-04-26T07:30:47.255Z,100.00
2023-04-26T07:33:51.546Z,100.00
2023-04-26T07:36:53.790Z,100.00
2023-04-26T07:39:55.831Z,100.00
2023-04-26T07:42:58.031Z,100.00
2023-04-26T07:46:02.383Z,100.00
2023-04-26T07:49:04.376Z,100.00
2023-04-26T07:52:06.426Z,100.00
2023-04-26T07:55:09.675Z,100.00
2023-04-26T07:58:12.554Z,100.00
2023-04-26T08:01:16.904Z,100.00
2023-04-26T08:04:33.899Z,100.00
2023-04-26T08:07:35.942Z,100.00
2023-04-26T08:10:40.709Z,100.00
2023-04-26T08:13:42.629Z,100.00
2023-04-26T08:16:53.228Z,100.00
2023-04-26T08:19:56.080Z,100.00
2023-04-26T08:22:57.988Z,100.00
2023-04-26T08:26:01.777Z,100.00
2023-04-26T08:29:03.561Z,100.00
2023-04-26T08:32:07.268Z,100.00
2023-04-26T08:35:09.840Z,100.00
2023-04-26T08:38:11.867Z,100.00
2023-04-26T08:41:14.127Z,100.00
2023-04-26T08:44:16.319Z,100.00
2023-04-26T08:47:39.884Z,100.00
2023-04-26T08:50:44.520Z,100.00
2023-04-26T08:53:48.440Z,100.00
2023-04-26T08:56:50.442Z,100.00
2023-04-26T08:59:55.934Z,100.00
2023-04-26T09:02:59.655Z,100.00
2023-04-26T09:06:04.829Z,100.00
2023-04-26T09:09:10.354Z,100.00
2023-04-26T09:12:13.230Z,100.00
2023-04-26T09:15:15.786Z,100.00
2023-04-26T09:18:23.830Z,100.00
2023-04-26T09:21:27.324Z,100.00
2023-04-26T09:24:48.843Z,100.00
2023-04-26T09:27:50.945Z,100.00
2023-04-26T09:30:55.435Z,100.00
2023-04-26T09:34:01.791Z,100.00
2023-04-26T09:37:03.926Z,100.00
2023-04-26T09:40:17.802Z,100.00
2023-04-26T09:43:21.745Z,100.00
2023-04-26T09:46:24.378Z,100.00
2023-04-26T09:49:28.258Z,100.00
2023-04-26T09:52:30.348Z,100.00
2023-04-26T09:55:35.187Z,100.00
2023-04-26T09:58:39.722Z,100.00
2023-04-26T10:01:41.518Z,100.00
2023-04-26T10:04:48.082Z,100.00
2023-04-26T10:07:50.768Z,100.00
2023-04-26T10:10:54.660Z,100.00
2023-04-26T10:13:56.588Z,100.00
2023-04-26T10:16:58.783Z,100.00
2023-04-26T10:20:04.517Z,100.00
2023-04-26T10:23:14.895Z,100.00
2023-04-26T10:26:48.125Z,100.00
2023-04-26T10:30:09.596Z,100.00
2023-04-26T10:33:12.834Z,100.00
2023-04-26T10:36:18.147Z,100.00
2023-04-26T10:39:21.534Z,100.00
2023-04-26T10:42:26.104Z,100.00
2023-04-26T10:45:29.733Z,100.00
2023-04-26T10:48:32.095Z,100.00
2023-04-26T10:51:36.675Z,100.00
2023-04-26T10:54:55.265Z,100.00
2023-04-26T10:57:57.545Z,100.00
2023-04-26T11:01:05.874Z,100.00
2023-04-26T11:04:11.000Z,100.00
2023-04-26T11:07:14.476Z,100.00
2023-04-26T11:10:23.219Z,100.00
2023-04-26T11:13:25.014Z,100.00
2023-04-26T11:16:29.373Z,100.00
2023-04-26T11:19:34.601Z,100.00
2023-04-26T11:22:48.456Z,100.00
2023-04-26T11:25:50.928Z,100.00
2023-04-26T11:28:52.892Z,100.00
2023-04-26T11:31:58.037Z,100.00
2023-04-26T11:35:00.847Z,100.00
2023-04-26T11:38:06.407Z,100.00
2023-04-26T11:41:08.328Z,100.00
2023-04-26T11:44:11.882Z,100.00
2023-04-26T11:47:19.167Z,100.00
2023-04-26T11:50:22.318Z,100.00
2023-04-26T11:53:26.054Z,100.00
2023-04-26T11:56:31.464Z,100.00
2023-04-26T11:59:33.221Z,100.00
2023-04-26T12:02:36.927Z,100.00
2023-04-26T12:05:39.115Z,100.00
2023-04-26T12:08:42.666Z,100.00
2023-04-26T12:11:49.013Z,100.00
2023-04-26T12:14:51.301Z,100.00
2023-04-26T12:17:54.589Z,100.00
2023-04-26T12:20:59.425Z,100.00
2023-04-26T12:24:04.255Z,100.00
2023-04-26T12:27:11.059Z,99.12
2023-04-26T12:30:13.248Z,94.05
2023-04-26T12:33:17.481Z,93.46
2023-04-26T12:36:19.887Z,94.62
2023-04-26T12:39:23.434Z,94.12
2023-04-26T12:42:29.892Z,95.18
2023-04-26T12:45:31.999Z,95.33
2023-04-26T12:48:33.800Z,91.85
2023-04-26T12:51:35.956Z,90.90
2023-04-26T12:54:39.392Z,97.76
2023-04-26T12:57:44.981Z,97.06
2023-04-26T13:00:46.992Z,98.67
2023-04-26T13:03:49.547Z,100.00
2023-04-26T13:06:54.914Z,100.00
2023-04-26T13:09:58.182Z,100.00
2023-04-26T13:13:02.796Z,100.00
2023-04-26T13:16:05.193Z,94.34
2023-04-26T13:19:07.195Z,93.89
2023-04-26T13:22:11.001Z,93.80
2023-04-26T13:25:14.170Z,91.14
2023-04-26T13:28:16.974Z,87.21
2023-04-26T13:31:19.075Z,91.25
2023-04-26T13:34:22.273Z,94.64
2023-04-26T13:37:25.380Z,95.84
2023-04-26T13:40:28.777Z,90.16
2023-04-26T13:43:30.594Z,94.73
2023-04-26T13:46:32.617Z,99.34
2023-04-26T13:49:34.395Z,93.14
2023-04-26T13:52:36.188Z,92.64
2023-04-26T13:55:40.622Z,93.24
2023-04-26T13:58:43.175Z,91.87
2023-04-26T14:01:45.174Z,87.99
2023-04-26T14:04:47.153Z,88.72
2023-04-26T14:07:54.253Z,90.93
2023-04-26T14:11:00.857Z,91.13
2023-04-26T14:14:02.801Z,91.71
2023-04-26T14:17:05.002Z,91.05
2023-04-26T14:20:09.789Z,89.93
2023-04-26T14:23:13.807Z,86.06
2023-04-26T14:26:17.359Z,84.85
2023-04-26T14:29:19.339Z,90.12
2023-04-26T14:32:21.149Z,93.72
2023-04-26T14:35:30.960Z,83.54
2023-04-26T14:38:34.572Z,86.55
2023-04-26T14:41:37.769Z,83.67
2023-04-26T14:44:40.378Z,81.93
2023-04-26T14:47:42.683Z,81.58
2023-04-26T14:50:44.860Z,78.46
2023-04-26T14:53:46.632Z,75.53
2023-04-26T14:56:51.802Z,75.37
2023-04-26T14:59:53.584Z,73.87
2023-04-26T15:02:55.859Z,75.67
2023-04-26T15:05:57.988Z,78.52
2023-04-26T15:09:02.398Z,78.47
2023-04-26T15:12:09.157Z,83.86
2023-04-26T15:15:12.011Z,80.85
2023-04-26T15:18:13.868Z,80.30
2023-04-26T15:21:19.013Z,78.59
2023-04-26T15:24:20.825Z,77.20
2023-04-26T15:27:24.205Z,77.85
2023-04-26T15:30:29.570Z,74.03
2023-04-26T15:33:33.497Z,73.45
2023-04-26T15:36:35.399Z,75.17
2023-04-26T15:39:37.457Z,73.38
2023-04-26T15:42:40.556Z,72.02
2023-04-26T15:45:45.516Z,73.49
2023-04-26T15:48:47.405Z,72.66
2023-04-26T15:51:49.152Z,69.17
2023-04-26T15:54:51.237Z,68.04
2023-04-26T15:57:57.032Z,71.20
2023-04-26T16:01:01.835Z,70.86
2023-04-26T16:04:06.848Z,68.83
2023-04-26T16:07:09.995Z,69.39
2023-04-26T16:10:14.733Z,67.41
2023-04-26T16:13:18.080Z,67.57
2023-04-26T16:16:20.292Z,66.00
2023-04-26T16:19:22.147Z,65.47
2023-04-26T16:22:24.526Z,68.11
2023-04-26T16:25:26.226Z,68.24
2023-04-26T16:28:30.664Z,70.09
2023-04-26T16:31:32.765Z,69.33
2023-04-26T16:34:34.573Z,68.66
2023-04-26T16:37:36.440Z,69.06
2023-04-26T16:40:40.465Z,74.48
2023-04-26T16:43:46.407Z,74.21
2023-04-26T16:46:48.421Z,75.91
2023-04-26T16:49:51.425Z,71.90
2023-04-26T16:52:53.193Z,73.75
2023-04-26T16:55:55.154Z,75.91
2023-04-26T16:59:00.374Z,74.23
2023-04-26T17:02:02.376Z,72.50
2023-04-26T17:05:04.827Z,73.45
2023-04-26T17:08:09.298Z,73.89
2023-04-26T17:11:14.055Z,73.72
2023-04-26T17:14:18.073Z,71.69
2023-04-26T17:17:24.326Z,72.51
2023-04-26T17:20:26.712Z,75.54
2023-04-26T17:23:29.374Z,76.74
2023-04-26T17:26:38.796Z,79.38
2023-04-26T17:29:44.290Z,82.46
2023-04-26T17:32:46.492Z,82.29
2023-04-26T17:35:48.558Z,82.83
2023-04-26T17:38:51.127Z,84.50
2023-04-26T17:41:53.898Z,85.37
2023-04-26T17:45:00.974Z,87.25
2023-04-26T17:48:05.814Z,89.06
2023-04-26T17:51:09.288Z,89.18
2023-04-26T17:54:12.220Z,87.70
2023-04-26T17:57:16.891Z,86.77
2023-04-26T18:00:23.279Z,86.42
2023-04-26T18:03:30.244Z,87.65
2023-04-26T18:06:35.991Z,87.88
2023-04-26T18:09:39.333Z,88.11
2023-04-26T18:12:41.625Z,90.77
2023-04-26T18:15:49.949Z,93.15
2023-04-26T18:18:51.792Z,95.12
2023-04-26T18:21:54.890Z,98.68
2023-04-26T18:24:58.103Z,100.00
2023-04-26T18:28:02.082Z,100.00
2023-04-26T18:31:06.138Z,100.00
2023-04-26T18:34:16.964Z,100.00
2023-04-26T18:37:20.658Z,100.00
2023-04-26T18:40:24.236Z,100.00
2023-04-26T18:43:28.380Z,100.00
2023-04-26T18:46:32.106Z,100.00
2023-04-26T18:49:38.461Z,100.00
2023-04-26T18:52:41.108Z,100.00
2023-04-26T18:55:43.759Z,100.00
2023-04-26T18:58:47.445Z,100.00
2023-04-26T19:01:51.219Z,100.00
2023-04-26T19:04:54.411Z,100.00
2023-04-26T19:07:58.245Z,100.00
2023-04-26T19:11:00.806Z,100.00
2023-04-26T19:14:04.490Z,100.00
2023-04-26T19:17:12.075Z,100.00
2023-04-26T19:20:15.896Z,100.00
2023-04-26T19:23:19.904Z,100.00
2023-04-26T19:26:23.887Z,100.00
2023-04-26T19:29:26.641Z,100.00
2023-04-26T19:32:30.398Z,100.00
2023-04-26T19:35:33.522Z,100.00
2023-04-26T19:38:36.186Z,100.00
2023-04-26T19:41:41.783Z,100.00
2023-04-26T19:44:46.314Z,100.00
2023-04-26T19:47:51.411Z,100.00
2023-04-26T19:50:55.927Z,100.00
2023-04-26T19:53:58.921Z,100.00
2023-04-26T19:57:01.795Z,100.00
2023-04-26T20:00:10.041Z,100.00
2023-04-26T20:03:18.838Z,100.00
2023-04-26T20:06:21.880Z,100.00
2023-04-26T20:09:25.299Z,100.00
2023-04-26T20:12:29.353Z,100.00
2023-04-26T20:15:34.462Z,100.00
2023-04-26T20:18:41.688Z,100.00
2023-04-26T20:21:43.996Z,100.00
2023-04-26T20:24:46.291Z,100.00
2023-04-26T20:27:48.954Z,100.00
2023-04-26T20:30:55.507Z,100.00
2023-04-26T20:34:06.236Z,100.00
2023-04-26T20:37:09.482Z,100.00
2023-04-26T20:40:13.286Z,100.00
2023-04-26T20:43:16.879Z,100.00
2023-04-26T20:46:19.239Z,100.00
2023-04-26T20:49:25.536Z,100.00
2023-04-26T20:52:29.314Z,100.00
2023-04-26T20:55:33.825Z,100.00
2023-04-26T20:58:37.663Z,100.00
2023-04-26T21:01:42.190Z,100.00
2023-04-26T21:04:45.961Z,100.00
2023-04-26T21:07:49.547Z,100.00
2023-04-26T21:10:53.702Z,100.00
2023-04-26T21:13:55.549Z,100.00
2023-04-26T21:16:58.660Z,100.00
2023-04-26T21:20:01.913Z,100.00
2023-04-26T21:23:06.693Z,100.00
2023-04-26T21:26:10.774Z,100.00
2023-04-26T21:29:12.633Z,100.00
2023-04-26T21:32:14.896Z,100.00
2023-04-26T21:35:18.058Z,100.00
2023-04-26T21:38:21.203Z,100.00
2023-04-26T21:41:22.981Z,100.00
2023-04-26T21:44:25.005Z,100.00
2023-04-26T21:47:27.784Z,100.00
2023-04-26T21:53:47.960Z,100.00
2023-04-26T21:56:50.131Z,100.00
2023-04-26T21:59:52.164Z,100.00
2023-04-26T22:02:54.185Z,100.00
2023-04-26T22:05:57.385Z,100.00
2023-04-26T22:08:59.160Z,100.00
2023-04-26T22:12:01.656Z,100.00
2023-04-26T22:15:03.975Z,100.00
2023-04-26T22:18:06.434Z,100.00
2023-04-26T22:21:11.340Z,100.00
2023-04-26T22:24:13.125Z,100.00
2023-04-26T22:27:16.046Z,100.00
2023-04-26T22:30:25.498Z,100.00
2023-04-26T22:33:29.497Z,100.00
2023-04-26T22:36:33.151Z,100.00
2023-04-26T22:39:36.689Z,100.00
2023-04-26T22:42:38.478Z,100.00
2023-04-26T22:45:43.334Z,100.00
2023-04-26T22:48:45.678Z,100.00
2023-04-26T22:52:01.150Z,100.00
2023-04-26T22:55:13.523Z,100.00
2023-04-26T22:58:17.355Z,100.00
2023-04-26T23:01:19.149Z,100.00
2023-04-26T23:04:22.138Z,100.00
2023-04-26T23:07:25.422Z,100.00
2023-04-26T23:10:27.678Z,100.00
2023-04-26T23:13:29.868Z,100.00
2023-04-26T23:16:32.153Z,100.00
2023-04-26T23:19:43.422Z,100.00
2023-04-26T23:22:46.672Z,100.00
2023-04-26T23:25:48.518Z,100.00
2023-04-26T23:28:51.919Z,100.00
2023-04-26T23:31:53.728Z,100.00
2023-04-26T23:34:55.871Z,100.00
2023-04-26T23:37:59.093Z,100.00
2023-04-26T23:41:03.700Z,100.00
2023-04-26T23:44:05.472Z,100.00
2023-04-26T23:47:07.959Z,100.00
2023-04-26T23:50:12.642Z,100.00
2023-04-26T23:53:15.768Z,100.00
2023-04-26T23:56:18.991Z,100.00
2023-04-26T23:59:20.831Z,100.00
